createdAt,value
2019-04-21T00:01:55.963Z,6.60
2019-04-21T00:06:26.389Z,6.97
2019-04-21T00:10:33.352Z,6.27
2019-04-21T00:14:26.175Z,6.00
2019-04-21T00:18:49.866Z,7.40
2019-04-21T00:22:59.054Z,7.23
2019-04-21T00:27:12.542Z,6.43
2019-04-21T00:31:15.320Z,6.80
2019-04-21T00:35:13.169Z,6.90
2019-04-21T00:39:43.668Z,24.77
2019-04-21T00:43:38.824Z,15.50
2019-04-21T00:47:46.196Z,7.50
2019-04-21T00:52:25.188Z,6.53
2019-04-21T00:56:23.217Z,5.93
2019-04-21T01:00:27.767Z,6.27
2019-04-21T01:04:38.216Z,6.33
2019-04-21T01:08:41.430Z,6.93
2019-04-21T01:12:52.673Z,6.17
2019-04-21T01:16:57.410Z,6.73
2019-04-21T01:20:40.906Z,6.17
2019-04-21T01:24:48.825Z,6.57
2019-04-21T01:29:06.999Z,6.17
2019-04-21T01:33:21.701Z,6.40
2019-04-21T01:37:32.944Z,6.13
2019-04-21T01:41:33.654Z,6.23
2019-04-21T01:45:36.994Z,6.93
2019-04-21T01:49:37.018Z,6.33
2019-04-21T01:54:07.654Z,7.10
2019-04-21T01:58:03.319Z,6.40
2019-04-21T02:02:20.302Z,6.00
2019-04-21T02:10:37.881Z,6.07
2019-04-21T02:14:40.030Z,6.40
2019-04-21T02:18:42.195Z,7.27
2019-04-21T02:23:05.941Z,6.83
2019-04-21T02:27:00.489Z,6.77
2019-04-21T02:31:22.623Z,6.10
2019-04-21T02:35:42.866Z,6.90
2019-04-21T02:43:25.609Z,6.93
2019-04-21T02:47:50.387Z,7.00
2019-04-21T02:51:52.485Z,6.50
2019-04-21T02:55:51.431Z,7.03
2019-04-21T03:00:13.639Z,6.77
2019-04-21T03:08:25.305Z,7.20
2019-04-21T03:12:24.657Z,6.63
2019-04-21T03:16:31.136Z,7.73
2019-04-21T03:28:52.155Z,7.80
2019-04-21T03:33:46.951Z,7.23
2019-04-21T03:37:14.035Z,7.20
2019-04-21T03:41:26.744Z,7.33
2019-04-21T03:45:32.693Z,6.60
2019-04-21T03:49:51.289Z,7.83
2019-04-21T03:53:33.921Z,6.83
2019-04-21T03:57:55.448Z,7.13
2019-04-21T04:02:14.806Z,7.13
2019-04-21T04:06:13.748Z,6.80
2019-04-21T04:10:13.550Z,7.40
2019-04-21T04:14:26.778Z,7.17
2019-04-21T04:18:39.111Z,6.97
2019-04-21T04:26:41.013Z,6.40
2019-04-21T04:30:45.300Z,7.20
2019-04-21T04:34:57.218Z,7.10
2019-04-21T04:39:35.814Z,7.53
2019-04-21T04:47:24.343Z,7.23
2019-04-21T04:51:48.076Z,6.60
2019-04-21T04:55:47.914Z,7.17
2019-04-21T04:59:47.513Z,6.90
2019-04-21T05:03:58.547Z,6.20
2019-04-21T05:08:10.123Z,7.33
2019-04-21T05:12:06.000Z,6.47
2019-04-21T05:16:31.609Z,7.00
2019-04-21T05:20:17.115Z,6.80
2019-04-21T05:24:16.318Z,6.93
2019-04-21T05:28:20.097Z,7.07
2019-04-21T05:32:45.195Z,6.50
2019-04-21T05:36:55.480Z,7.17
2019-04-21T05:40:48.336Z,7.13
2019-04-21T05:45:12.749Z,7.37
2019-04-21T05:49:29.759Z,6.60
2019-04-21T05:53:39.308Z,6.67
2019-04-21T05:57:39.465Z,6.83
2019-04-21T06:01:58.431Z,6.90
2019-04-21T06:06:09.981Z,6.60
2019-04-21T06:10:22.497Z,6.97
2019-04-21T06:14:14.483Z,7.13
2019-04-21T06:18:27.413Z,7.00
2019-04-21T06:22:27.409Z,7.30
2019-04-21T06:26:51.810Z,8.03
2019-04-21T06:30:56.329Z,8.40
2019-04-21T06:35:08.277Z,7.62
2019-04-21T06:43:13.012Z,8.50
2019-04-21T06:47:06.382Z,9.55
2019-04-21T06:51:20.362Z,11.22
2019-04-21T06:55:20.490Z,10.32
2019-04-21T06:59:26.546Z,11.28
2019-04-21T07:03:38.784Z,10.78
2019-04-21T07:07:43.695Z,10.60
2019-04-21T07:11:42.169Z,10.50
2019-04-21T07:15:58.810Z,9.83
2019-04-21T07:24:14.146Z,10.30
2019-04-21T07:28:10.247Z,10.07
2019-04-21T07:32:22.154Z,9.57
2019-04-21T07:36:39.805Z,10.20
2019-04-21T07:40:29.016Z,9.03
2019-04-21T07:44:37.807Z,8.83
2019-04-21T07:48:50.102Z,9.10
2019-04-21T07:53:08.470Z,8.17
2019-04-21T07:56:58.965Z,9.07
2019-04-21T08:01:18.083Z,8.50
2019-04-21T08:09:29.250Z,8.37
2019-04-21T08:13:39.251Z,8.20
2019-04-21T08:17:41.400Z,8.33
2019-04-21T08:21:55.817Z,7.73
2019-04-21T08:30:05.036Z,7.97
2019-04-21T08:34:13.971Z,8.60
2019-04-21T08:38:16.481Z,8.30
2019-04-21T08:42:25.416Z,7.30
2019-04-21T08:46:36.755Z,7.63
2019-04-21T08:50:37.653Z,7.03
2019-04-21T08:54:47.763Z,7.50
2019-04-21T08:59:12.697Z,7.00
2019-04-21T09:03:25.504Z,6.93
2019-04-21T09:07:39.393Z,7.07
2019-04-21T09:11:40.484Z,6.17
2019-04-21T09:15:47.150Z,6.53
2019-04-21T09:20:01.783Z,6.90
2019-04-21T09:24:00.602Z,6.13
2019-04-21T09:28:06.983Z,5.30
2019-04-21T09:31:59.173Z,5.65
2019-04-21T09:36:06.188Z,5.77
2019-04-21T09:40:09.082Z,5.40
2019-04-21T09:44:20.813Z,5.60
2019-04-21T09:48:22.424Z,5.75
2019-04-21T09:52:39.161Z,4.85
2019-04-21T09:56:45.468Z,4.95
2019-04-21T10:00:49.895Z,3.80
2019-04-21T10:04:50.154Z,4.17
2019-04-21T10:09:01.219Z,4.10
2019-04-21T10:13:02.955Z,4.40
2019-04-21T10:17:27.766Z,4.40
2019-04-21T10:21:33.914Z,4.30
2019-04-21T10:25:38.840Z,4.60
2019-04-21T10:29:45.364Z,4.75
2019-04-21T10:33:50.372Z,5.00
2019-04-21T10:38:10.480Z,4.20
2019-04-21T10:42:01.902Z,4.67
2019-04-21T10:46:06.877Z,4.72
2019-04-21T10:50:13.079Z,5.10
2019-04-21T10:54:18.084Z,5.12
2019-04-21T10:58:28.481Z,5.03
2019-04-21T11:02:41.192Z,4.85
2019-04-21T11:06:46.451Z,5.42
2019-04-21T11:10:51.961Z,5.95
2019-04-21T11:14:56.993Z,5.65
2019-04-21T11:19:02.066Z,6.75
2019-04-21T11:23:08.026Z,6.33
2019-04-21T11:27:12.901Z,6.75
2019-04-21T11:31:18.803Z,6.28
2019-04-21T11:35:23.877Z,6.33
2019-04-21T11:39:39.258Z,6.05
2019-04-21T11:43:37.222Z,5.35
2019-04-21T11:47:43.755Z,4.83
2019-04-21T11:51:49.033Z,6.00
2019-04-21T11:55:55.538Z,4.90
2019-04-21T12:00:01.773Z,4.85
2019-04-21T12:04:09.739Z,5.03
2019-04-21T12:08:22.932Z,6.22
2019-04-21T12:12:21.404Z,5.15
2019-04-21T12:16:26.246Z,5.28
2019-04-21T12:20:31.229Z,5.30
2019-04-21T12:24:38.068Z,5.22
2019-04-21T12:28:45.957Z,4.70
2019-04-21T12:32:58.482Z,5.37
2019-04-21T12:37:04.618Z,5.10
2019-04-21T12:41:10.724Z,5.08
2019-04-21T12:45:17.313Z,4.55
2019-04-21T12:49:22.311Z,4.58
2019-04-21T12:53:27.692Z,5.12
2019-04-21T12:57:33.263Z,4.87
2019-04-21T13:01:39.015Z,4.67
2019-04-21T13:05:45.330Z,4.97
2019-04-21T13:09:50.510Z,5.00
2019-04-21T13:13:55.745Z,5.08
2019-04-21T13:18:00.764Z,5.20
2019-04-21T13:22:06.058Z,4.33
2019-04-21T13:26:11.386Z,4.50
2019-04-21T13:30:18.152Z,5.08
2019-04-21T13:34:24.113Z,4.55
2019-04-21T13:38:36.930Z,4.42
2019-04-21T13:42:42.676Z,4.22
2019-04-21T13:46:46.972Z,5.15
2019-04-21T13:50:53.483Z,4.00
2019-04-21T13:54:58.439Z,4.60
2019-04-21T13:59:04.218Z,4.28
2019-04-21T14:03:10.422Z,4.20
2019-04-21T14:07:16.457Z,4.33
2019-04-21T14:11:21.386Z,4.67
2019-04-21T14:15:26.422Z,4.45
2019-04-21T14:19:31.321Z,4.35
2019-04-21T14:23:43.685Z,4.45
2019-04-21T14:27:45.707Z,4.10
2019-04-21T14:31:50.553Z,4.53
2019-04-21T14:35:56.754Z,4.42
2019-04-21T14:40:07.494Z,4.53
2019-04-21T14:44:09.090Z,4.45
2019-04-21T14:48:32.865Z,4.30
2019-04-21T14:52:39.171Z,4.47
2019-04-21T14:56:44.964Z,3.87
2019-04-21T15:00:53.075Z,4.65
2019-04-21T15:04:57.929Z,4.03
2019-04-21T15:09:03.380Z,4.10
2019-04-21T15:13:08.343Z,3.33
2019-04-21T15:17:15.922Z,4.85
2019-04-21T15:21:19.836Z,4.62
2019-04-21T15:25:26.079Z,4.30
2019-04-21T15:29:30.982Z,4.20
2019-04-21T15:33:36.982Z,4.40
2019-04-21T15:37:42.112Z,4.03
2019-04-21T15:41:48.211Z,4.28
2019-04-21T15:45:53.727Z,4.25
2019-04-21T15:50:06.599Z,3.70
2019-04-21T15:54:06.878Z,4.40
2019-04-21T15:58:16.516Z,3.98
2019-04-21T16:02:40.822Z,4.70
2019-04-21T16:06:45.785Z,4.20
2019-04-21T16:10:56.531Z,3.80
2019-04-21T16:14:58.692Z,5.22
2019-04-21T16:19:03.988Z,3.75
2019-04-21T16:23:10.715Z,4.22
2019-04-21T16:27:15.650Z,4.65
2019-04-21T16:31:20.553Z,3.92
2019-04-21T16:35:26.732Z,3.95
2019-04-21T16:39:33.552Z,4.17
2019-04-21T16:43:38.560Z,4.58
2019-04-21T16:47:44.218Z,4.45
2019-04-21T16:51:51.922Z,4.75
2019-04-21T16:56:02.601Z,3.95
2019-04-21T17:00:13.850Z,4.17
2019-04-21T17:04:20.271Z,4.35
2019-04-21T17:08:26.122Z,4.15
2019-04-21T17:12:31.099Z,4.20
2019-04-21T17:16:55.162Z,4.10
2019-04-21T17:20:50.139Z,3.60
2019-04-21T17:24:50.569Z,3.70
2019-04-21T17:28:56.712Z,3.70
2019-04-21T17:33:01.731Z,3.47
2019-04-21T17:37:06.764Z,3.83
2019-04-21T17:41:21.600Z,3.37
2019-04-21T17:45:19.318Z,3.58
2019-04-21T17:49:25.222Z,3.92
2019-04-21T17:53:41.919Z,5.33
2019-04-21T17:58:00.845Z,3.15
2019-04-21T18:02:11.002Z,2.95
2019-04-21T18:06:10.565Z,3.30
2019-04-21T18:10:21.805Z,2.90
2019-04-21T18:14:11.416Z,3.70
2019-04-21T18:18:16.726Z,3.67
2019-04-21T18:22:40.957Z,3.90
2019-04-21T18:26:52.146Z,3.92
2019-04-21T18:31:06.886Z,3.62
2019-04-21T18:35:17.734Z,4.47
2019-04-21T18:39:40.639Z,4.50
2019-04-21T18:44:04.057Z,3.72
2019-04-21T18:48:10.280Z,4.00
2019-04-21T18:52:17.039Z,3.33
2019-04-21T18:56:16.733Z,3.70
2019-04-21T19:00:26.216Z,3.90
2019-04-21T19:04:30.028Z,3.67
2019-04-21T19:08:57.790Z,3.47
2019-04-21T19:17:29.112Z,3.83
2019-04-21T19:21:11.188Z,3.40
2019-04-21T19:25:34.578Z,4.33
2019-04-21T19:33:29.800Z,3.33
2019-04-21T19:37:24.393Z,5.87
2019-04-21T19:41:41.029Z,7.77
2019-04-21T19:45:45.920Z,6.10
2019-04-21T19:50:00.350Z,5.37
2019-04-21T19:53:55.990Z,4.30
2019-04-21T19:57:53.037Z,4.63
2019-04-21T20:01:58.303Z,5.27
2019-04-21T20:06:11.819Z,5.03
2019-04-21T20:10:44.498Z,5.20
2019-04-21T20:14:47.818Z,5.23
2019-04-21T20:18:32.815Z,4.80
2019-04-21T20:22:36.382Z,5.50
2019-04-21T20:26:41.671Z,5.07
2019-04-21T20:31:03.681Z,5.00
2019-04-21T20:35:18.274Z,6.03
2019-04-21T20:39:05.376Z,4.87
2019-04-21T20:43:33.719Z,4.17
2019-04-21T20:47:20.748Z,4.60
2019-04-21T20:51:35.641Z,4.17
2019-04-21T20:55:35.408Z,4.47
2019-04-21T20:59:43.929Z,4.60
2019-04-21T21:03:51.777Z,4.63
2019-04-21T21:08:10.239Z,5.17
2019-04-21T21:20:24.829Z,4.93
2019-04-21T21:24:39.156Z,6.20
2019-04-21T21:28:34.820Z,6.23
2019-04-21T21:32:44.610Z,5.67
2019-04-21T21:36:50.657Z,6.03
2019-04-21T21:40:51.726Z,5.70
2019-04-21T21:44:49.533Z,10.60
2019-04-21T21:49:01.956Z,7.60
2019-04-21T21:53:04.215Z,6.90
2019-04-21T21:57:04.942Z,5.97
2019-04-21T22:01:15.157Z,6.47
2019-04-21T22:05:24.379Z,6.40
2019-04-21T22:09:28.363Z,6.53
2019-04-21T22:13:43.587Z,6.70
2019-04-21T22:17:54.063Z,5.80
2019-04-21T22:22:08.342Z,5.37
2019-04-21T22:25:53.487Z,6.03
2019-04-21T22:30:03.290Z,6.53
2019-04-21T22:34:10.487Z,7.00
2019-04-21T22:38:28.379Z,7.37
2019-04-21T22:42:26.677Z,6.20
2019-04-21T22:46:26.380Z,6.40
2019-04-21T22:50:34.920Z,5.30
2019-04-21T22:54:43.262Z,6.27
2019-04-21T22:58:47.964Z,6.17
2019-04-21T23:03:01.321Z,7.13
2019-04-21T23:07:02.841Z,6.50
2019-04-21T23:11:10.793Z,5.93
2019-04-21T23:15:19.043Z,6.37
2019-04-21T23:19:36.313Z,5.87
2019-04-21T23:23:44.239Z,5.10
2019-04-21T23:27:59.148Z,5.93
2019-04-21T23:31:59.274Z,5.90
2019-04-21T23:35:49.507Z,5.97
2019-04-21T23:40:04.127Z,6.00
2019-04-21T23:44:05.909Z,5.93
2019-04-21T23:48:23.855Z,5.33
2019-04-21T23:52:17.570Z,19.23
2019-04-21T23:56:29.998Z,5.77
